Time;durP1;ratioP1;P1;durP2;ratioP2;P2;SDS_P1;SDS_P2;PMS_P1;PMS_P2;Temp;Humidity;BMP_temperature;BMP_pressure;BME280_temperature;BME280_humidity;BME280_pressure;Samples;Min_cycle;Max_cycle;Signal;HPM_P1;HPM_P2
2022/04/02 00:00:52;;;;;;;2.10;1.50;;;7.90;43.30;;;11.16;34.63;101433.38;5048029;28;20197;-59
2022/04/02 00:03:21;;;;;;;2.17;1.50;;;7.90;42.70;;;11.15;34.87;101444.91;5035571;28;20203;-57
2022/04/02 00:05:48;;;;;;;3.30;1.60;;;7.80;42.70;;;11.15;34.53;101447.53;5033097;28;20195;-57
2022/04/02 00:08:16;;;;;;;2.03;1.70;;;7.80;42.80;;;11.12;35.05;101450.50;5032623;28;20238;-58
2022/04/02 00:10:43;;;;;;;1.70;1.30;;;7.80;43.00;;;11.12;34.88;101445.22;5033463;28;20601;-59
2022/04/02 00:13:10;;;;;;;1.60;1.50;;;7.80;42.90;;;11.13;34.65;101444.22;5032801;28;20199;-59
2022/04/02 00:15:39;;;;;;;2.97;1.80;;;7.80;43.00;;;11.12;34.96;101447.84;5032567;28;20593;-59
2022/04/02 00:18:07;;;;;;;2.83;1.83;;;7.80;43.10;;;11.13;35.48;101446.84;5046102;28;20522;-55
2022/04/02 00:20:35;;;;;;;2.20;1.50;;;7.80;43.20;;;11.11;35.20;101446.19;5051358;28;20651;-59
2022/04/02 00:25:48;;;;;;;1.80;1.57;;;7.90;43.20;;;11.07;35.13;101450.97;5053319;28;20194;-59
2022/04/02 00:28:16;;;;;;;2.67;1.77;;;7.80;43.30;;;11.03;34.93;101444.34;5055212;28;20229;-59
2022/04/02 00:30:44;;;;;;;2.00;1.63;;;7.80;43.40;;;11.03;34.99;101446.19;5054883;28;20247;-58
2022/04/02 00:33:11;;;;;;;4.40;1.97;;;7.80;43.50;;;11.01;35.17;101445.50;5056058;28;20194;-59
2022/04/02 00:35:41;;;;;;;2.77;1.63;;;7.70;43.50;;;11.01;35.32;101448.97;5037104;28;20222;-56
2022/04/02 00:38:09;;;;;;;2.37;1.80;;;7.80;43.70;;;10.99;35.47;101453.56;5038255;28;20219;-58
2022/04/02 00:40:42;;;;;;;2.83;2.03;;;7.70;43.60;;;10.99;35.12;101444.84;5046678;28;20211;-59
2022/04/02 00:43:22;;;;;;;1.90;1.43;;;7.80;43.70;;;10.97;35.40;101452.06;5046455;28;20209;-59
2022/04/02 00:45:51;;;;;;;1.97;1.77;;;7.80;43.70;;;10.99;35.79;101448.31;5043899;28;20191;-60
2022/04/02 00:48:20;;;;;;;2.67;1.40;;;7.70;43.70;;;10.99;35.48;101450.09;5044315;28;20221;-59
2022/04/02 00:50:55;;;;;;;2.30;1.57;;;7.80;43.80;;;11.00;35.56;101446.50;5045973;28;20228;-58
2022/04/02 00:53:24;;;;;;;3.93;1.83;;;7.80;43.80;;;10.98;35.47;101446.66;5036230;28;20194;-58
2022/04/02 00:55:52;;;;;;;2.00;1.27;;;7.70;44.00;;;10.95;35.41;101448.78;5036156;28;20662;-57
2022/04/02 00:58:19;;;;;;;2.03;1.30;;;7.70;44.00;;;10.93;35.70;101450.75;5035772;28;20210;-58
2022/04/02 01:00:47;;;;;;;1.70;1.60;;;7.70;44.20;;;10.93;35.76;101448.13;5036135;28;20214;-58
2022/04/02 01:03:16;;;;;;;1.67;1.50;;;7.60;44.40;;;10.89;35.60;101451.06;5036163;28;20201;-58
2022/04/02 01:05:45;;;;;;;3.73;1.70;;;7.70;44.40;;;10.92;36.17;101459.63;5035721;28;20222;-56
2022/04/02 01:08:13;;;;;;;1.67;1.57;;;7.70;44.40;;;10.92;36.11;101454.38;5044569;28;20236;-57
2022/04/02 01:10:41;;;;;;;2.07;1.40;;;7.70;44.60;;;10.94;35.88;101449.75;5056434;28;20674;-58
2022/04/02 01:13:09;;;;;;;1.70;1.50;;;7.70;44.60;;;10.94;35.85;101457.66;5056016;28;20202;-58
2022/04/02 01:15:38;;;;;;;2.43;1.70;;;7.70;44.60;;;10.95;35.92;101460.16;5058471;28;20208;-59
2022/04/02 01:18:05;;;;;;;1.73;1.63;;;7.70;44.70;;;10.96;35.98;101466.25;5055345;28;20216;-57
2022/04/02 01:20:34;;;;;;;1.50;1.40;;;7.70;44.60;;;10.96;35.82;101459.16;5056071;28;20190;-56
2022/04/02 01:23:03;;;;;;;2.70;2.03;;;7.70;44.80;;;10.97;35.76;101459.97;5058805;28;20198;-57
2022/04/02 01:25:33;;;;;;;2.43;1.67;;;7.70;44.70;;;10.96;36.02;101463.63;5052682;28;20227;-59
2022/04/02 01:28:02;;;;;;;2.43;1.63;;;7.70;44.70;;;10.93;36.32;101462.13;5045750;28;20293;-59
2022/04/02 01:30:30;;;;;;;2.23;1.40;;;7.70;44.80;;;10.92;36.38;101459.63;5035258;28;20727;-58
2022/04/02 01:32:59;;;;;;;3.33;1.43;;;7.70;44.70;;;10.92;36.28;101460.47;5035230;28;20221;-55
2022/04/02 01:35:26;;;;;;;3.23;1.40;;;7.70;44.90;;;10.91;36.66;101458.00;5035414;28;20197;-58
2022/04/02 01:37:54;;;;;;;2.90;1.57;;;7.70;45.10;;;10.91;36.18;101471.16;5034658;28;20236;-58
2022/04/02 01:40:22;;;;;;;3.50;1.50;;;7.70;45.00;;;10.91;36.16;101473.78;5035339;28;20190;-57
2022/04/02 01:42:50;;;;;;;2.43;1.87;;;7.70;45.20;;;10.89;36.81;101474.78;5036598;28;20191;-58
2022/04/02 01:45:17;;;;;;;3.93;1.47;;;7.60;45.30;;;10.87;36.27;101468.00;5035257;28;20237;-58
2022/04/02 01:47:45;;;;;;;2.13;1.60;;;7.60;45.30;;;10.85;36.28;101476.06;5034527;28;20589;-58
2022/04/02 01:50:12;;;;;;;1.63;1.50;;;7.60;45.50;;;10.85;36.65;101465.53;5034964;28;20195;-59
2022/04/02 01:52:39;;;;;;;3.67;1.97;;;7.60;45.50;;;10.85;36.68;101470.81;5034791;28;20671;-58
2022/04/02 01:55:07;;;;;;;2.37;1.67;;;7.60;45.50;;;10.86;36.52;101471.66;5035194;28;20197;-59
2022/04/02 01:57:36;;;;;;;2.10;1.40;;;7.60;45.40;;;10.87;36.96;101465.38;5036040;28;20205;-58
2022/04/02 02:00:05;;;;;;;1.60;1.50;;;7.70;45.50;;;10.88;36.30;101470.50;5034847;28;20203;-59
2022/04/02 02:02:33;;;;;;;2.90;1.50;;;7.70;45.40;;;10.89;36.35;101472.13;5034932;28;20555;-57
2022/04/02 02:05:00;;;;;;;2.07;1.63;;;7.60;45.40;;;10.93;36.17;101477.94;5034956;28;20241;-59
2022/04/02 02:07:28;;;;;;;2.03;1.83;;;7.60;45.60;;;10.94;36.26;101474.28;5034379;28;20222;-57
2022/04/02 02:09:57;;;;;;;1.77;1.57;;;7.60;45.60;;;10.93;36.30;101477.09;5034598;28;20195;-58
2022/04/02 02:12:25;;;;;;;4.40;1.77;;;7.70;45.60;;;10.92;36.71;101473.63;5034596;28;20329;-58
2022/04/02 02:14:54;;;;;;;4.93;2.00;;;7.70;45.60;;;10.92;36.60;101475.44;5035664;28;20194;-59
2022/04/02 02:17:21;;;;;;;1.83;1.53;;;7.60;45.60;;;10.93;36.93;101482.34;5034335;28;20722;-59
2022/04/02 02:19:48;;;;;;;3.77;2.00;;;7.70;45.70;;;10.94;37.06;101486.63;5034409;28;20651;-59
2022/04/02 02:22:15;;;;;;;2.47;1.67;;;7.70;45.70;;;10.93;36.57;101479.72;5034213;28;20197;-59
2022/04/02 02:24:43;;;;;;;3.33;1.97;;;7.60;45.60;;;10.92;36.40;101481.53;5034876;28;20206;-57
2022/04/02 02:27:10;;;;;;;2.43;1.93;;;7.60;45.60;;;10.94;36.88;101478.72;5034099;28;20210;-59
2022/04/02 02:29:38;;;;;;;1.77;1.67;;;7.60;45.80;;;10.93;36.86;101488.47;5034637;28;20201;-56
2022/04/02 02:32:08;;;;;;;3.03;1.67;;;7.60;45.80;;;10.92;36.67;101485.97;5035221;28;20299;-58
2022/04/02 02:37:21;;;;;;;2.60;2.00;;;7.60;46.00;;;10.89;37.12;101482.66;5033841;28;20217;-57
2022/04/02 02:39:48;;;;;;;2.17;1.97;;;7.60;46.10;;;10.88;36.58;101486.31;5034087;28;20194;-57
2022/04/02 02:42:15;;;;;;;3.87;2.00;;;7.60;46.10;;;10.86;36.94;101488.25;5033839;28;20191;-57
2022/04/02 02:44:43;;;;;;;2.30;1.83;;;7.60;46.20;;;10.83;37.25;101482.47;5033950;28;20190;-59
2022/04/02 02:47:11;;;;;;;2.53;1.77;;;7.60;46.20;;;10.82;37.61;101492.19;5033431;28;20233;-57
2022/04/02 02:49:39;;;;;;;1.50;1.40;;;7.60;46.30;;;10.83;36.94;101491.22;5050307;28;20194;-58
2022/04/02 02:52:06;;;;;;;3.97;1.63;;;7.60;46.20;;;10.77;36.87;101499.72;5054125;28;20214;-57
2022/04/02 02:54:34;;;;;;;2.50;1.80;;;7.60;46.10;;;10.76;37.33;101498.09;5054049;28;20186;-59
2022/04/02 02:57:01;;;;;;;4.43;1.80;;;7.60;46.10;;;10.72;37.80;101496.72;5053386;28;20217;-57
2022/04/02 02:59:28;;;;;;;2.87;1.77;;;7.50;46.20;;;10.71;37.72;101505.63;5053501;28;20190;-58
2022/04/02 03:01:56;;;;;;;1.93;1.57;;;7.50;46.30;;;10.72;37.11;101507.25;5053623;28;20510;-57
2022/04/02 03:04:25;;;;;;;2.33;1.60;;;7.50;46.40;;;10.73;37.00;101498.41;5052394;28;20205;-58
2022/04/02 03:06:53;;;;;;;2.50;1.90;;;7.50;46.60;;;10.73;37.44;101503.66;5053444;28;20221;-58
2022/04/02 03:09:22;;;;;;;3.43;2.03;;;7.50;46.70;;;10.73;37.16;101500.19;5053464;28;20598;-58
2022/04/02 03:11:50;;;;;;;3.27;1.93;;;7.40;46.60;;;10.73;37.80;101498.41;5053134;28;20206;-57
2022/04/02 03:14:18;;;;;;;3.53;2.13;;;7.50;46.70;;;10.75;37.66;101506.97;5053573;28;20273;-59
2022/04/02 03:16:45;;;;;;;1.87;1.43;;;7.50;46.80;;;10.75;37.56;101506.97;5053199;28;20289;-58
2022/04/02 03:19:12;;;;;;;2.17;1.60;;;7.50;46.70;;;10.78;37.66;101501.38;5053408;28;20189;-57
2022/04/02 03:21:41;;;;;;;1.90;1.80;;;7.50;46.60;;;10.79;37.26;101505.66;5051521;28;20221;-58
2022/04/02 03:24:09;;;;;;;3.00;1.90;;;7.60;46.70;;;10.79;37.19;101508.28;5053030;28;20192;-58
2022/04/02 03:26:36;;;;;;;3.90;2.03;;;7.60;46.60;;;10.77;37.46;101509.44;5052782;28;20193;-60
2022/04/02 03:29:03;;;;;;;3.63;2.00;;;7.60;46.60;;;10.75;37.34;101506.97;5053244;28;20190;-59
2022/04/02 03:31:31;;;;;;;2.40;2.03;;;7.50;47.10;;;10.73;37.47;101508.09;5053287;28;20658;-59
2022/04/02 03:33:58;;;;;;;2.47;2.10;;;7.50;46.60;;;10.73;37.80;101519.47;5053130;28;20187;-59
2022/04/02 03:36:25;;;;;;;2.27;2.07;;;7.50;46.70;;;10.71;37.31;101513.53;5053013;28;20194;-58
2022/04/02 03:38:54;;;;;;;2.77;1.70;;;7.50;46.70;;;10.67;37.43;101514.81;5051545;28;20197;-58
2022/04/02 03:41:23;;;;;;;3.90;1.90;;;7.50;46.80;;;10.64;37.67;101514.31;5052919;28;20197;-57
2022/04/02 03:43:51;;;;;;;3.13;1.70;;;7.50;47.00;;;10.63;37.52;101517.91;5053544;28;20527;-55
2022/04/02 03:49:04;;;;;;;3.07;2.77;;;7.40;47.10;;;10.61;37.69;101520.69;5053587;28;20243;-58
2022/04/02 03:51:32;;;;;;;2.60;2.10;;;7.40;47.20;;;10.60;37.73;101526.94;5053385;28;20210;-55
2022/04/02 03:54:01;;;;;;;2.03;1.90;;;7.40;47.30;;;10.59;38.25;101527.94;5051944;28;20736;-56
2022/04/02 03:56:28;;;;;;;2.10;1.80;;;7.30;47.30;;;10.57;37.88;101529.91;5053200;28;20194;-56
2022/04/02 03:58:55;;;;;;;2.77;2.07;;;7.30;47.60;;;10.55;37.96;101529.22;5053086;28;20220;-57
2022/04/02 04:01:23;;;;;;;3.70;2.20;;;7.30;47.60;;;10.56;38.62;101537.94;5055914;28;20194;-59
2022/04/02 04:03:50;;;;;;;3.90;2.10;;;7.30;47.80;;;10.55;38.05;101534.50;5055871;28;20288;-57
2022/04/02 04:06:18;;;;;;;2.70;2.07;;;7.30;47.80;;;10.56;38.19;101544.03;5056554;28;20190;-56
2022/04/02 04:08:45;;;;;;;3.17;2.00;;;7.30;47.80;;;10.57;38.19;101537.78;5056321;28;20647;-57
2022/04/02 04:11:16;;;;;;;3.67;2.03;;;7.30;47.80;;;10.57;38.71;101545.69;5055600;28;20707;-57
2022/04/02 04:13:43;;;;;;;2.40;2.13;;;7.30;47.70;;;10.57;38.44;101544.84;5057181;28;20212;-58
2022/04/02 04:16:11;;;;;;;2.33;2.07;;;7.40;47.80;;;10.56;38.91;101543.19;5056459;28;20186;-57
2022/04/02 04:18:38;;;;;;;2.40;2.20;;;7.40;47.90;;;10.54;38.10;101546.00;5056664;28;20292;-58
2022/04/02 04:21:05;;;;;;;2.23;2.03;;;7.40;48.00;;;10.55;38.59;101552.09;5056657;28;20570;-58
2022/04/02 04:23:34;;;;;;;2.83;2.30;;;7.30;47.80;;;10.53;38.58;101548.78;5056451;28;20205;-58
2022/04/02 04:26:02;;;;;;;2.70;2.20;;;7.40;47.90;;;10.51;38.56;101561.25;5056459;28;20281;-57
2022/04/02 04:28:31;;;;;;;5.30;4.63;;;7.30;47.80;;;10.49;38.54;101569.31;5056425;28;20297;-60
2022/04/02 04:30:58;;;;;;;19.37;10.60;;;7.30;47.90;;;10.49;38.32;101558.78;5060682;28;20186;-57
2022/04/02 04:33:26;;;;;;;5.97;5.13;;;7.30;48.10;;;10.51;38.91;101569.97;5061906;28;20198;-59
2022/04/02 04:35:53;;;;;;;4.60;3.10;;;7.30;48.20;;;10.50;38.82;101560.44;5061099;28;20263;-59
2022/04/02 04:38:22;;;;;;;3.37;2.50;;;7.30;48.30;;;10.49;38.68;101569.31;5060584;28;20210;-59
2022/04/02 04:40:49;;;;;;;3.17;2.10;;;7.30;48.30;;;10.49;38.88;101574.56;5060204;28;20190;-59
2022/04/02 04:43:16;;;;;;;4.83;2.50;;;7.20;48.40;;;10.47;38.41;101573.91;5059417;28;20680;-59
2022/04/02 04:45:45;;;;;;;2.53;2.33;;;7.20;48.50;;;10.43;39.00;101580.47;5043099;28;20292;-59
2022/04/02 04:48:12;;;;;;;2.77;2.53;;;7.20;48.60;;;10.40;39.06;101583.41;5039069;28;20221;-59
2022/04/02 04:50:39;;;;;;;3.40;2.27;;;7.10;48.60;;;10.37;39.32;101581.06;5039291;28;20187;-61
2022/04/02 04:53:07;;;;;;;2.00;1.70;;;7.10;48.60;;;10.37;39.08;101586.31;5039429;28;20222;-59
2022/04/02 04:55:34;;;;;;;4.37;2.77;;;7.10;48.80;;;10.38;39.28;101585.34;5038378;28;20265;-58
2022/04/02 04:58:02;;;;;;;3.27;2.83;;;7.10;48.80;;;10.37;39.23;101586.31;5037911;28;20214;-59
2022/04/02 05:00:29;;;;;;;5.83;2.23;;;7.10;48.90;;;10.33;38.73;101595.50;5037931;28;20534;-57
2022/04/02 05:02:58;;;;;;;2.40;2.20;;;7.10;48.70;;;10.31;38.88;101601.91;5039505;28;20269;-58
2022/04/02 05:05:31;;;;;;;3.00;2.20;;;7.10;49.00;;;10.29;39.49;101598.59;5037887;28;20550;-60
2022/04/02 05:08:04;;;;;;;3.00;2.20;;;7.10;49.10;;;10.27;39.10;101600.56;5037514;28;20240;-58
2022/04/02 05:10:33;;;;;;;2.57;2.07;;;7.10;49.20;;;10.27;39.56;101601.34;5037938;28;20187;-60
2022/04/02 05:13:02;;;;;;;6.83;2.83;;;7.10;49.10;;;10.27;39.71;101611.88;5037239;28;20214;-59
2022/04/02 05:15:29;;;;;;;3.60;2.60;;;7.00;49.20;;;10.24;39.61;101611.38;5037954;28;20535;-59
2022/04/02 05:17:58;;;;;;;3.40;2.70;;;7.00;49.30;;;10.22;39.56;101608.91;5040510;28;20291;-59
2022/04/02 05:20:26;;;;;;;2.83;2.40;;;7.00;49.50;;;10.18;39.79;101616.25;5057285;28;20250;-59
2022/04/02 05:22:53;;;;;;;4.27;2.60;;;7.00;49.50;;;10.19;39.65;101617.09;5057885;28;20201;-58
2022/04/02 05:25:21;;;;;;;5.27;2.83;;;7.00;49.60;;;10.18;39.65;101618.06;5057719;28;20191;-59
2022/04/02 05:27:48;;;;;;;3.83;2.20;;;7.00;49.70;;;10.17;39.71;101617.22;5057762;28;20272;-58
2022/04/02 05:30:17;;;;;;;3.80;2.37;;;7.00;49.50;;;10.19;39.45;101624.97;5057271;28;20273;-56
2022/04/02 05:32:44;;;;;;;4.37;2.60;;;6.90;49.60;;;10.19;39.88;101620.56;5056176;28;20225;-59
2022/04/02 05:35:13;;;;;;;3.17;2.50;;;7.00;49.70;;;10.20;39.53;101631.88;5053605;28;20578;-58
2022/04/02 05:37:44;;;;;;;3.40;2.67;;;6.90;49.80;;;10.17;39.87;101626.94;5054670;28;20555;-59
2022/04/02 05:40:13;;;;;;;2.30;2.10;;;6.90;50.00;;;10.14;39.82;101627.22;5055046;28;20206;-58
2022/04/02 05:42:40;;;;;;;3.37;2.80;;;6.90;50.00;;;10.14;40.14;101633.31;5055102;28;20201;-58
2022/04/02 05:45:09;;;;;;;2.90;2.47;;;6.90;50.10;;;10.18;40.20;101634.66;5053866;28;20676;-58
2022/04/02 05:47:42;;;;;;;3.93;3.00;;;6.90;50.30;;;10.19;40.10;101630.25;5054693;28;20297;-58
2022/04/02 05:50:12;;;;;;;2.23;2.00;;;6.90;50.20;;;10.20;40.02;101635.34;5055014;28;20185;-57
2022/04/02 05:53:00;;;;;;;3.17;2.47;;;6.90;50.20;;;10.20;40.15;101634.50;5053308;28;20210;-58
2022/04/02 05:55:27;;;;;;;4.33;2.50;;;7.00;50.20;;;10.22;40.13;101637.84;5054871;28;20199;-57
2022/04/02 05:57:55;;;;;;;3.10;2.80;;;7.00;50.20;;;10.25;40.05;101641.94;5054085;28;20216;-59
2022/04/02 06:00:23;;;;;;;3.30;2.80;;;7.00;50.30;;;10.27;40.25;101651.34;5054988;28;20675;-57
2022/04/02 06:02:55;;;;;;;6.23;3.03;;;7.00;50.40;;;10.28;40.21;101653.00;5054735;28;20190;-58
2022/04/02 06:05:24;;;;;;;6.73;3.63;;;7.00;50.30;;;10.34;40.14;101652.41;5054568;28;20200;-58
2022/04/02 06:07:51;;;;;;;5.03;3.03;;;7.00;50.90;;;10.40;39.86;101659.72;5052089;28;20216;-57
2022/04/02 06:10:19;;;;;;;3.33;2.63;;;7.10;50.50;;;10.45;40.09;101661.88;5054792;28;20187;-56
2022/04/02 06:12:47;;;;;;;2.50;2.30;;;7.20;50.40;;;10.47;39.69;101660.75;5054788;28;20205;-56
2022/04/02 06:15:15;;;;;;;3.40;2.47;;;7.20;50.20;;;10.53;40.15;101659.34;5054421;28;20196;-56
2022/04/02 06:17:42;;;;;;;3.50;2.80;;;7.20;50.20;;;10.58;39.95;101668.41;5054085;28;20224;-58
2022/04/02 06:20:10;;;;;;;3.43;2.27;;;7.30;50.20;;;10.64;39.25;101672.25;5054586;28;20553;-58
2022/04/02 06:22:39;;;;;;;2.90;2.30;;;7.30;50.00;;;10.70;39.39;101674.25;5054072;28;20539;-58
2022/04/02 06:25:07;;;;;;;4.63;3.27;;;7.40;50.00;;;10.75;39.34;101682.53;5051661;28;20193;-57
2022/04/02 06:27:41;;;;;;;4.13;3.33;;;7.40;49.80;;;10.76;39.21;101687.66;5053100;28;20313;-59
2022/04/02 06:30:11;;;;;;;4.70;3.03;;;7.40;50.00;;;10.81;39.64;101693.31;5054190;28;20622;-58
2022/04/02 06:32:40;;;;;;;4.93;2.60;;;7.40;49.90;;;10.86;39.47;101693.66;5053888;28;20240;-58
2022/04/02 06:35:08;;;;;;;4.53;2.83;;;7.50;50.00;;;10.93;39.10;101695.69;5054314;28;20197;-56
2022/04/02 06:37:39;;;;;;;5.13;3.30;;;7.50;49.80;;;10.99;39.21;101700.34;5053563;28;20557;-59
2022/04/02 06:40:11;;;;;;;3.03;2.50;;;7.60;49.80;;;11.05;39.32;101708.47;5054107;28;20204;-58
2022/04/02 06:42:39;;;;;;;3.07;2.30;;;7.60;49.80;;;11.13;39.43;101705.88;5052713;28;20190;-58
2022/04/02 06:45:07;;;;;;;3.50;2.43;;;7.70;49.70;;;11.24;38.90;101712.72;5054538;28;20200;-59
2022/04/02 06:47:35;;;;;;;18.40;12.70;;;7.80;49.50;;;11.29;38.36;101711.25;5053293;28;20577;-57
2022/04/02 06:50:05;;;;;;;26.53;19.27;;;7.80;49.20;;;11.38;38.84;101709.50;5053602;28;20197;-58
2022/04/02 06:52:33;;;;;;;5.17;3.97;;;7.90;49.20;;;11.44;38.20;101711.50;5053588;28;20213;-59
2022/04/02 06:55:03;;;;;;;3.83;2.53;;;8.00;48.90;;;11.50;38.43;101709.06;5053724;28;20194;-55
2022/04/02 06:57:30;;;;;;;2.67;2.13;;;8.10;48.80;;;11.61;38.58;101720.34;5051468;28;20225;-57
2022/04/02 06:59:58;;;;;;;3.70;2.70;;;8.20;48.80;;;11.69;38.01;101713.34;5052815;28;20198;-58
2022/04/02 07:02:25;;;;;;;4.50;2.83;;;8.20;48.10;;;11.71;37.44;101721.91;5053286;28;20185;-57
2022/04/02 07:04:53;;;;;;;2.43;2.23;;;8.20;47.90;;;11.73;38.06;101719.94;5054152;28;20196;-57
2022/04/02 07:07:20;;;;;;;2.93;2.60;;;8.30;48.10;;;11.75;37.14;101717.97;5053273;28;20222;-58
2022/04/02 07:09:47;;;;;;;3.10;2.20;;;8.30;47.40;;;11.79;36.95;101714.03;5052280;28;20309;-56
2022/04/02 07:12:16;;;;;;;3.17;1.60;;;8.40;46.70;;;11.79;36.10;101716.66;5053087;28;20213;-58
2022/04/02 07:14:43;;;;;;;3.23;2.00;;;8.40;46.00;;;11.77;36.26;101713.38;5051448;28;20655;-59
2022/04/02 07:17:11;;;;;;;4.03;2.00;;;8.40;45.80;;;11.81;35.83;101711.25;5052798;28;20220;-59
2022/04/02 07:19:40;;;;;;;2.40;2.20;;;8.40;45.40;;;11.86;35.85;101708.97;5053082;28;20198;-57
2022/04/02 07:22:09;;;;;;;2.73;1.80;;;8.40;45.70;;;12.01;35.58;101713.47;5053144;28;20201;-56
2022/04/02 07:24:39;;;;;;;3.13;1.70;;;8.50;45.20;;;12.17;35.03;101713.50;5053598;28;20193;-56
2022/04/02 07:27:08;;;;;;;2.17;1.90;;;8.60;44.70;;;12.32;34.70;101719.00;5052705;28;20227;-58
2022/04/02 07:29:36;;;;;;;3.70;2.10;;;8.80;44.40;;;12.46;34.82;101725.44;5052641;28;20549;-57
2022/04/02 07:32:07;;;;;;;3.83;3.37;;;8.90;44.10;;;12.62;34.71;101733.41;5051376;28;20186;-57
2022/04/02 07:34:34;;;;;;;3.00;2.33;;;9.00;43.90;;;12.78;33.95;101733.44;5052928;28;20219;-56
2022/04/02 07:37:08;;;;;;;2.07;1.87;;;9.20;43.40;;;13.03;34.31;101743.00;5052289;28;20260;-57
2022/04/02 07:39:48;;;;;;;3.17;2.43;;;9.40;44.00;;;13.21;33.90;101730.50;5052651;28;20195;-59
2022/04/02 07:42:22;;;;;;;2.90;2.30;;;9.50;43.10;;;13.38;33.58;101737.38;5052731;28;20186;-59
2022/04/02 07:45:05;;;;;;;3.27;2.97;;;9.70;42.70;;;13.57;33.05;101733.56;5052578;28;20208;-60
2022/04/02 07:47:35;;;;;;;2.87;2.17;;;9.90;42.30;;;13.81;33.08;101743.25;5051726;28;20244;-60
2022/04/02 07:50:07;;;;;;;3.03;2.47;;;10.00;41.20;;;14.09;32.17;101737.34;5052228;28;20709;-59
2022/04/02 07:52:39;;;;;;;3.67;2.50;;;10.20;40.80;;;14.20;31.53;101738.75;5052603;28;20264;-59
2022/04/02 07:55:08;;;;;;;2.13;1.80;;;10.40;39.70;;;14.29;31.91;101745.66;5052406;28;20201;-59
2022/04/02 07:57:40;;;;;;;2.53;2.13;;;10.60;40.00;;;14.52;31.23;101737.78;5050164;28;20240;-59
2022/04/02 08:00:13;;;;;;;2.20;1.83;;;10.80;39.10;;;14.54;31.14;101741.91;5041071;28;20198;-58
2022/04/02 08:02:46;;;;;;;3.10;2.20;;;10.90;38.50;;;14.98;31.18;101743.91;5032564;28;20278;-59
2022/04/02 08:05:16;;;;;;;3.43;2.00;;;11.10;38.90;;;15.42;30.22;101745.66;5032798;28;20537;-59
2022/04/02 08:07:54;;;;;;;4.13;2.40;;;11.40;38.10;;;15.82;28.87;101739.13;5031931;28;20210;-58
2022/04/02 08:10:26;;;;;;;1.93;1.50;;;11.60;36.80;;;16.04;26.76;101751.47;5032514;28;20190;-57
2022/04/02 08:12:57;;;;;;;3.30;1.87;;;11.90;33.50;;;16.06;27.22;101745.97;5032583;28;20642;-59
2022/04/02 08:15:26;;;;;;;2.43;1.73;;;12.00;32.60;;;16.20;26.88;101747.75;5033170;28;20195;-58
2022/04/02 08:17:55;;;;;;;3.23;2.90;;;12.20;32.10;;;16.78;26.55;101746.81;5031969;28;20207;-58
2022/04/02 08:20:23;;;;;;;2.20;1.30;;;12.50;32.00;;;17.61;25.79;101748.72;5032470;28;20313;-57
2022/04/02 08:22:51;;;;;;;2.53;1.80;;;12.90;32.10;;;18.52;24.79;101749.13;5032459;28;20604;-59
2022/04/02 08:25:19;;;;;;;1.90;1.60;;;13.30;31.40;;;19.00;22.86;101757.81;5032614;28;20194;-59
2022/04/02 08:28:04;;;;;;;4.53;1.70;;;13.80;29.00;;;19.53;22.33;101751.47;5031746;28;20211;-60
2022/04/02 08:30:38;;;;;;;3.57;1.67;;;14.30;28.50;;;20.22;22.57;101754.38;5038885;28;20232;-59
2022/04/02 08:33:25;;;;;;;2.63;1.80;;;14.80;29.10;;;20.80;22.07;101751.56;5052492;28;20569;-56
2022/04/02 08:36:05;;;;;;;2.70;1.63;;;15.30;28.30;;;21.13;19.73;101749.47;5052347;28;20186;-59
2022/04/02 08:38:47;;;;;;;1.73;1.40;;;15.60;26.10;;;20.54;19.37;101752.53;5052506;28;20330;-59
2022/04/02 08:42:12;;;;;;;4.43;1.67;;;15.60;24.10;;;19.83;20.13;101743.78;5052770;28;20557;-59
2022/04/02 08:45:08;;;;;;;1.73;1.63;;;15.50;24.20;;;20.10;21.53;101758.69;5050197;28;20590;-58
2022/04/02 08:48:23;;;;;;;2.60;1.90;;;15.70;25.70;;;20.61;21.04;101752.50;5053349;28;20218;-60
2022/04/02 08:51:17;;;;;;;2.10;1.80;;;15.80;25.30;;;21.49;20.32;101749.53;5056114;28;20712;-59
2022/04/02 08:54:01;;;;;;;1.70;1.60;;;16.10;25.90;;;21.73;18.86;101760.44;5053859;28;20244;-59
2022/04/02 08:56:34;;;;;;;2.33;1.63;;;16.30;24.80;;;21.78;19.15;101755.22;5055673;28;20205;-59
2022/04/02 08:59:04;;;;;;;1.90;1.60;;;16.60;24.70;;;21.95;19.28;101759.78;5055470;28;20208;-59
2022/04/02 09:01:42;;;;;;;1.70;1.60;;;16.80;24.70;;;22.39;19.06;101764.00;5055970;28;20256;-59
2022/04/02 09:05:08;;;;;;;1.70;1.60;;;16.80;24.00;;;22.90;18.14;101766.16;5045393;28;20205;-60
2022/04/02 09:08:38;;;;;;;7.03;3.67;;;17.10;24.10;;;23.63;17.92;101763.88;5027059;28;20214;-60
2022/04/02 09:11:23;;;;;;;1.73;1.63;;;17.60;23.80;;;24.36;17.26;101771.38;4970855;28;20207;-59
2022/04/02 09:14:16;;;;;;;4.07;3.40;;;18.10;22.90;;;24.40;15.30;101767.13;5035666;28;20215;-60
2022/04/02 09:17:01;;;;;;;3.30;1.70;;;18.40;20.90;;;24.34;16.01;101762.72;5035237;28;20302;-60
2022/04/02 09:19:52;;;;;;;1.70;1.60;;;18.60;20.90;;;23.94;14.96;101779.63;5035114;28;20205;-60
2022/04/02 09:22:33;;;;;;;2.03;1.67;;;18.60;19.80;;;23.18;16.20;101773.56;5035169;28;20559;-60
2022/04/02 09:26:08;;;;;;;2.17;1.90;;;18.50;19.80;;;23.58;16.69;101769.97;5035265;28;20190;-60
2022/04/02 09:28:44;;;;;;;6.33;4.00;;;18.40;20.60;;;24.44;16.98;101784.44;4974222;28;20230;-60
2022/04/02 09:32:07;;;;;;;2.47;1.63;;;18.70;22.00;;;25.07;15.21;101779.69;5024463;28;20210;-60
2022/04/02 09:35:34;;;;;;;2.30;1.70;;;19.00;21.50;;;23.58;15.32;101779.94;5035247;28;20249;-60
2022/04/02 09:38:50;;;;;;;2.30;1.60;;;18.70;18.60;;;21.56;16.66;101779.75;5034967;28;20241;-60
2022/04/02 09:41:31;;;;;;;1.40;1.30;;;18.10;19.30;;;21.32;17.11;101777.91;5034013;28;20211;-60
2022/04/02 09:44:32;;;;;;;1.43;1.20;;;17.50;19.30;;;21.65;17.58;101783.00;5035175;28;20225;-60
2022/04/02 09:47:21;;;;;;;1.83;1.27;;;17.30;20.40;;;22.43;16.16;101778.59;5034009;28;20221;-60
2022/04/02 09:50:11;;;;;;;1.50;1.40;;;17.30;20.00;;;23.06;16.03;101786.19;4977237;28;20258;-60
2022/04/02 09:52:45;;;;;;;3.43;2.90;;;17.50;19.90;;;24.09;16.23;101773.78;4993354;28;20196;-59
2022/04/02 09:55:22;;;;;;;1.77;1.67;;;17.90;21.00;;;25.06;15.00;101780.72;5009623;28;20564;-60
2022/04/02 09:58:22;;;;;;;4.17;3.63;;;18.40;20.80;;;25.73;14.11;101783.38;5011955;28;20222;-60
2022/04/02 10:01:03;;;;;;;1.50;1.30;;;18.80;19.60;;;25.25;12.23;101779.41;4996668;28;20203;-60
2022/04/02 10:03:48;;;;;;;1.90;1.37;;;19.10;16.70;;;24.03;13.18;101777.41;5012423;28;20229;-60
2022/04/02 10:06:26;;;;;;;1.80;1.07;;;18.80;15.80;;;22.92;14.25;101785.53;5012183;28;20692;-60
2022/04/02 10:09:09;;;;;;;1.33;1.10;;;18.60;16.70;;;22.22;14.83;101776.41;5012523;28;20652;-58
2022/04/02 10:11:46;;;;;;;3.30;1.80;;;18.10;16.70;;;21.91;14.95;101781.91;5011431;28;20203;-60
2022/04/02 10:14:20;;;;;;;1.63;1.47;;;17.80;17.50;;;22.21;15.19;101774.75;5015942;28;20233;-60
2022/04/02 10:16:52;;;;;;;2.10;1.53;;;17.70;17.70;;;22.88;15.53;101776.31;5012585;28;20237;-60
2022/04/02 10:19:28;;;;;;;1.20;1.10;;;17.70;18.60;;;23.73;14.44;101772.19;5012131;28;20195;-60
2022/04/02 10:22:16;;;;;;;1.57;1.20;;;17.90;18.50;;;23.01;14.59;101767.25;5012638;28;20339;-60
2022/04/02 10:24:49;;;;;;;1.33;1.23;;;17.90;17.10;;;22.82;14.70;101778.03;5012395;28;20294;-60
2022/04/02 10:27:31;;;;;;;1.13;1.13;;;17.90;17.60;;;22.49;14.84;101766.13;5033981;28;20218;-60
2022/04/02 10:30:06;;;;;;;1.40;1.30;;;17.80;17.70;;;21.65;14.98;101771.44;5054313;28;20201;-60
2022/04/02 10:32:55;;;;;;;2.93;2.70;;;17.50;17.30;;;21.17;15.50;101769.41;5055368;28;20267;-59
2022/04/02 10:35:25;;;;;;;3.30;2.57;;;17.30;17.90;;;21.22;15.42;101776.78;5053753;28;20243;-58
2022/04/02 10:38:09;;;;;;;2.00;1.70;;;17.00;17.70;;;22.17;15.49;101769.03;5052775;28;20209;-62
2022/04/02 10:40:45;;;;;;;1.77;1.53;;;17.10;18.90;;;23.49;14.66;101760.63;5053756;28;20650;-59
2022/04/02 10:43:24;;;;;;;1.87;1.40;;;17.40;18.90;;;24.12;14.04;101760.69;5052856;28;20208;-59
2022/04/02 10:45:53;;;;;;;1.80;1.60;;;17.80;18.20;;;24.95;13.57;101754.69;5033671;28;20558;-61
2022/04/02 10:48:32;;;;;;;4.73;1.40;;;18.20;18.10;;;24.77;13.92;101758.41;5033065;28;20293;-61